Flight Track Log - Related Links

Times and Time Zones

All times are in EDT time to prevent confusion due to time zone crossing. See the RPA3143 flight status page for this flight to view local times or setup timezone preferences in your user account.

Time Position Orientation Groundspeed Altitude Reporting Facility
EDT Latitude Longitude Course Direction KTS MPH feet Rate Location/Type
Thu 06:07:59 AM 40.4503 -80.2911 203° Southwest 261 300 4,600  Level Cleveland Center
Thu 06:08:59 AM 40.3814 -80.2589 160° South 300 345 7,900 3,300 Climbing Cleveland Center
Thu 06:09:00 AM 40.3314 -79.9062 164° South  Level Estimated
Thu 06:09:59 AM 40.3064 -80.2236 160° South 305 351 11,200  Level Cleveland Center
Thu 06:10:00 AM 40.2778 -79.7976 162° South  Level Estimated
Thu 06:10:59 AM 40.2228 -80.1781 157° South 311 358 13,900  Level Cleveland Center
Thu 06:11:00 AM 40.1951 -79.8680 213° Southwest  Level FlightAware Approximate
Thu 06:11:59 AM 40.1183 -80.1325 162° South 359 413 17,000  Level Cleveland Center
Thu 06:12:00 AM 40.1447 -79.7571 161° South  Level Estimated
Thu 06:12:59 AM 40.0347 -80.0897 159° South 368 423 19,300  Level Cleveland Center
Thu 06:13:00 AM 40.0541 -79.8080 203° Southwest  Level FlightAware Approximate
Thu 06:13:59 AM 39.9344 -80.0417 160° South 368 423 21,000  Level Cleveland Center
Thu 06:14:59 AM 39.8342 -79.9911 159° South 374 430 21,000  Level Cleveland Center
Thu 06:16:35 AM 39.6633 -79.9128 161° South 378 435 21,000  Level Washington Center
Thu 06:17:36 AM 39.5669 -79.8692 161° South 396 456 21,000  Level Washington Center
Thu 06:18:35 AM 39.4469 -79.8461 172° South 396 456 21,000  Level Washington Center
Thu 06:19:34 AM 39.3439 -79.8078 164° South 391 450 21,000  Level Washington Center
Thu 06:20:33 AM 39.2897 -79.6892 121° Southeast 378 435 21,000  Level Washington Center
Thu 06:21:35 AM 39.2758 -79.5436 97° East 361 415 21,000  Level Washington Center
Thu 06:22:33 AM 39.2639 -79.3983 96° East 379 436 21,000  Level Washington Center
Thu 06:23:34 AM 39.2458 -79.2367 98° East 392 451 21,000  Level Washington Center
Thu 06:24:33 AM 39.2336 -79.0911 96° East 409 471 21,000  Level Washington Center
Thu 06:25:34 AM 39.2211 -78.9433 96° East 409 471 21,000  Level Washington Center
Thu 06:26:35 AM 39.2083 -78.8006 97° East 409 471 21,000 -49 Level Washington Center
Thu 06:27:36 AM 39.1933 -78.6553 98° East 409 471 20,900 -915 Descending Washington Center
Thu 06:28:33 AM 39.1817 -78.5397 97° East 409 471 19,200 -1,950 Descending Washington Center
Thu 06:29:36 AM 39.1628 -78.3731 98° East 403 464 17,000 -1,091 Descending Washington Center
Thu 06:30:34 AM 39.1322 -78.2406 107° East 384 442 17,000  Level Washington Center
Thu 06:31:35 AM 39.0997 -78.1083 108° East 384 442 17,000 -934 Level Washington Center
Thu 06:32:36 AM 39.0647 -77.9817 110° East 384 442 15,100 -1,881 Descending Washington Center
Thu 06:33:33 AM 39.0358 -77.8603 107° East 376 433 13,300 -1,800 Descending Washington Center
Thu 06:34:36 AM 39.0086 -77.7528 108° East 330 380 11,500 -1,659 Descending Washington Center
Thu 06:35:36 AM 38.9814 -77.6450 108° East 319 367 9,900 -1,613 Descending Washington Center
Thu 06:36:35 AM 38.9517 -77.5456 111° Southeast 307 353 8,300 -1,261 Descending Washington Center
Thu 06:37:35 AM 38.9614 -77.4578 82° East 280 322 7,400 -1,455 Descending Washington Center
Thu 06:38:47 AM 39.0000 -77.3500 65° Northeast 244 281 5,100 -1,227 Descending Potomac TRACON
Thu 06:39:47 AM 39.0167 -77.2667 76° East 226 260 4,700 -579 Descending Potomac TRACON
Thu 06:40:41 AM 39.0167 -77.2167 90° East 221 254 4,000 -778 Descending Potomac TRACON

Login

Don't have an account? Register now (free) for customized features, flight alerts, and more!